Time;durP1;ratioP1;P1;durP2;ratioP2;P2;SDS_P1;SDS_P2;PMS_P1;PMS_P2;Temp;Humidity;BMP_temperature;BMP_pressure;BME280_temperature;BME280_humidity;BME280_pressure;Samples;Min_cycle;Max_cycle;Signal;HPM_P1;HPM_P2
2022/06/26 00:02:08;;;;;;;5.90;3.50;;;;;;;19.32;56.45;98185.44;106373;1276;25363;-82
2022/06/26 00:04:37;;;;;;;5.30;3.50;;;;;;;19.29;56.37;98185.51;106060;1278;137327;-82
2022/06/26 00:07:03;;;;;;;5.80;3.70;;;;;;;19.26;56.41;98187.36;106205;1275;22559;-81
2022/06/26 00:09:32;;;;;;;6.00;3.80;;;;;;;19.22;56.36;98190.14;106137;1276;137890;-81
2022/06/26 00:11:59;;;;;;;;;;;;;;;19.19;56.23;98191.16;106199;1276;24228;-81
2022/06/26 00:14:26;;;;;;;8.10;3.60;;;;;;;19.14;56.18;98195.16;106055;1276;22806;-81
2022/06/26 00:16:53;;;;;;;4.10;3.10;;;;;;;19.11;56.00;98202.85;106070;1275;137129;-82
2022/06/26 00:19:22;;;;;;;6.40;3.80;;;;;;;19.09;56.04;98209.91;106173;1277;25258;-83
2022/06/26 00:21:48;;;;;;;;;;;;;;;19.06;55.91;98208.41;106173;1277;137414;-82
2022/06/26 00:24:14;;;;;;;4.30;3.20;;;;;;;19.03;56.25;98208.58;106157;1277;22577;-85
2022/06/26 00:26:41;;;;;;;4.60;3.20;;;;;;;19.01;56.55;98210.34;106293;1276;25262;-82
2022/06/26 00:29:08;;;;;;;9.30;3.60;;;;;;;18.98;56.46;98211.98;106051;1279;137354;-83
2022/06/26 00:31:34;;;;;;;4.10;3.10;;;;;;;18.95;56.55;98213.58;105926;1278;22713;-81
2022/06/26 00:34:01;;;;;;;5.20;3.70;;;;;;;18.93;56.33;98216.12;105878;1280;137258;-82
2022/06/26 00:36:30;;;;;;;6.70;3.90;;;;;;;18.90;56.49;98222.57;106350;1276;23416;-81
2022/06/26 00:38:58;;;;;;;5.80;3.70;;;;;;;18.88;56.29;98219.69;106461;1276;24348;-80
2022/06/26 00:41:25;;;;;;;5.00;3.80;;;;;;;18.85;56.46;98222.61;106448;1276;137276;-81
2022/06/26 00:43:52;;;;;;;4.80;3.80;;;;;;;18.83;56.19;98222.70;106555;1276;23249;-81
2022/06/26 00:46:24;;;;;;;5.20;3.40;;;;;;;18.80;56.23;98224.61;106476;1276;137424;-80
2022/06/26 00:48:52;;;;;;;4.70;3.60;;;;;;;18.77;56.25;98224.02;106446;1276;25261;-82
2022/06/26 00:51:20;;;;;;;5.70;3.80;;;;;;;18.75;56.34;98224.20;106305;1277;137600;-82
2022/06/26 00:53:46;;;;;;;5.90;3.60;;;;;;;18.70;56.87;98220.75;106541;1277;25384;-84
2022/06/26 00:56:13;;;;;;;3.90;3.50;;;;;;;18.66;57.14;98220.58;106805;1277;24207;-82
2022/06/26 00:58:40;;;;;;;4.60;3.70;;;;;;;18.61;57.29;98219.98;106024;1276;138113;-83
2022/06/26 01:01:08;;;;;;;4.70;3.80;;;;;;;18.57;57.40;98222.05;106217;1276;22729;-82
2022/06/26 01:03:37;;;;;;;6.30;3.80;;;;;;;18.53;57.67;98221.30;106231;1276;137446;-81
2022/06/26 01:06:06;;;;;;;;;;;;;;;18.48;57.90;98223.09;106368;1277;22690;-81
2022/06/26 01:08:35;;;;;;;4.10;3.70;;;;;;;18.42;57.85;98221.32;106207;1276;25397;-79
2022/06/26 01:11:17;;;;;;;5.40;3.80;;;;;;;18.38;57.80;98223.43;105937;1277;137400;-79
2022/06/26 01:14:01;;;;;;;10.60;4.20;;;;;;;18.33;57.63;98225.56;106033;1279;23190;-80
2022/06/26 01:16:45;;;;;;;6.80;3.80;;;;;;;18.29;57.59;98227.67;105913;1281;137561;-82
2022/06/26 01:19:17;;;;;;;6.30;3.50;;;;;;;18.26;57.70;98228.05;106243;1279;22624;-82
2022/06/26 01:21:46;;;;;;;6.60;4.10;;;;;;;18.23;58.02;98229.20;105887;1278;137908;-82
2022/06/26 01:24:14;;;;;;;6.10;4.20;;;;;;;18.18;58.45;98228.33;105988;1279;22834;-81
2022/06/26 01:26:41;;;;;;;5.60;4.40;;;;;;;18.12;58.76;98228.81;106241;1277;24547;-82
2022/06/26 01:29:07;;;;;;;6.60;4.80;;;;;;;18.06;59.02;98231.13;106016;1277;137662;-80
2022/06/26 01:31:34;;;;;;;6.00;4.60;;;;;;;18.02;59.21;98230.96;105933;1280;23287;-80
2022/06/26 01:34:06;;;;;;;7.30;4.70;;;;;;;17.99;59.44;98230.73;106304;1276;138190;-80
2022/06/26 01:36:33;;;;;;;7.90;4.90;;;;;;;17.95;59.41;98229.03;106234;1277;24794;-81
2022/06/26 01:39:00;;;;;;;5.50;4.00;;;;;;;17.90;59.54;98231.05;106009;1278;22558;-81
2022/06/26 01:41:27;;;;;;;6.00;4.30;;;;;;;17.84;59.60;98228.35;106027;1277;137990;-80
2022/06/26 01:43:54;;;;;;;5.00;4.00;;;;;;;17.80;59.83;98232.15;106102;1279;22717;-81
2022/06/26 01:46:22;;;;;;;8.40;4.00;;;;;;;17.75;60.00;98230.35;106010;1276;137522;-80
2022/06/26 01:48:48;;;;;;;4.30;3.90;;;;;;;17.71;60.04;98230.08;106361;1276;22664;-81
2022/06/26 01:51:15;;;;;;;5.70;4.00;;;;;;;17.66;60.20;98231.30;106245;1277;22547;-81
2022/06/26 01:53:45;;;;;;;6.30;4.30;;;;;;;17.62;60.34;98228.28;106065;1278;25458;-81
2022/06/26 01:56:12;;;;;;;5.20;4.00;;;;;;;17.59;60.36;98228.02;106241;1276;22548;-81
2022/06/26 01:58:43;;;;;;;6.20;4.00;;;;;;;17.56;60.54;98226.20;106152;1276;137871;-81
2022/06/26 02:01:15;;;;;;;5.80;4.10;;;;;;;17.54;60.66;98229.92;106361;1277;24488;-80
2022/06/26 02:03:42;;;;;;;5.50;4.40;;;;;;;17.51;60.69;98232.95;106257;1277;137461;-81
2022/06/26 02:06:10;;;;;;;7.80;4.20;;;;;;;17.48;60.78;98231.23;106249;1277;25490;-80
2022/06/26 02:08:37;;;;;;;5.90;4.70;;;;;;;17.42;61.09;98230.09;106098;1277;24365;-82
2022/06/26 02:13:45;;;;;;;8.90;4.30;;;;;;;17.36;61.43;98229.84;106022;1276;25260;-82
2022/06/26 02:16:28;;;;;;;5.60;4.80;;;;;;;17.35;61.79;98233.27;106338;1276;138197;-81
2022/06/26 02:18:58;;;;;;;5.60;4.60;;;;;;;17.36;61.81;98239.86;106337;1276;22652;-81
2022/06/26 02:21:27;;;;;;;;;;;;;;;17.37;61.86;98241.34;105930;1277;137922;-81
2022/06/26 02:23:59;;;;;;;9.00;4.80;;;;;;;17.37;62.02;98246.73;106247;1278;23374;-81
2022/06/26 02:26:26;;;;;;;5.60;4.60;;;;;;;17.35;62.08;98244.21;106127;1277;25349;-82
2022/06/26 02:28:57;;;;;;;6.80;4.80;;;;;;;17.34;62.15;98248.85;106176;1277;137283;-81
2022/06/26 02:31:23;;;;;;;6.60;4.70;;;;;;;17.33;62.27;98250.84;106223;1277;22560;-82
2022/06/26 02:33:50;;;;;;;8.70;4.70;;;;;;;17.32;62.30;98250.86;106159;1276;137633;-82
2022/06/26 02:36:16;;;;;;;5.90;5.30;;;;;;;17.31;62.11;98250.10;106135;1278;23007;-82
2022/06/26 02:38:42;;;;;;;7.90;5.10;;;;;;;17.29;62.16;98249.91;106208;1277;23028;-81
2022/06/26 02:41:09;;;;;;;9.30;4.70;;;;;;;17.27;62.40;98253.51;106074;1277;137711;-81
2022/06/26 02:43:35;;;;;;;8.30;4.90;;;;;;;17.25;62.14;98256.44;106465;1276;22568;-81
2022/06/26 02:46:06;;;;;;;10.20;5.10;;;;;;;17.23;62.31;98258.13;106279;1276;137889;-80
2022/06/26 02:48:32;;;;;;;5.90;4.60;;;;;;;17.21;62.45;98256.82;106179;1276;22563;-80
2022/06/26 02:50:59;;;;;;;6.20;4.70;;;;;;;17.20;62.50;98262.06;106224;1276;22568;-82
2022/06/26 02:53:25;;;;;;;6.70;4.70;;;;;;;17.18;62.70;98266.00;106615;1277;137478;-80
2022/06/26 02:55:51;;;;;;;11.60;5.40;;;;;;;17.17;62.90;98270.36;106103;1277;22703;-81
2022/06/26 02:58:18;;;;;;;6.40;4.70;;;;;;;17.17;63.16;98274.32;106117;1277;138300;-81
2022/06/26 03:00:55;;;;;;;7.00;5.10;;;;;;;17.18;63.25;98278.82;106239;1276;22727;-81
2022/06/26 03:03:22;;;;;;;8.70;4.90;;;;;;;17.20;63.51;98280.50;106084;1276;138194;-81
2022/06/26 03:05:49;;;;;;;5.50;4.40;;;;;;;17.22;63.75;98285.27;106141;1279;24015;-81
2022/06/26 03:08:15;;;;;;;5.30;4.80;;;;;;;17.23;63.85;98284.70;106092;1278;22589;-81
2022/06/26 03:10:41;;;;;;;6.10;4.90;;;;;;;17.23;63.67;98287.96;106352;1276;137309;-81
2022/06/26 03:13:08;;;;;;;6.80;5.60;;;;;;;17.23;63.70;98289.35;106282;1277;22579;-81
2022/06/26 03:15:34;;;;;;;7.30;5.50;;;;;;;17.21;63.72;98288.52;106240;1277;137629;-81
2022/06/26 03:18:03;;;;;;;6.20;4.80;;;;;;;17.20;63.75;98297.51;106412;1277;22566;-81
2022/06/26 03:20:30;;;;;;;6.30;4.60;;;;;;;17.18;63.75;98297.59;106097;1277;22715;-81
2022/06/26 03:22:56;;;;;;;6.10;4.70;;;;;;;17.17;63.78;98294.19;106006;1277;137906;-81
2022/06/26 03:25:22;;;;;;;8.30;5.60;;;;;;;17.17;63.81;98299.14;105990;1277;22573;-81
2022/06/26 03:27:50;;;;;;;6.60;5.30;;;;;;;17.17;63.95;98301.83;105935;1280;137801;-81
2022/06/26 03:30:18;;;;;;;7.30;5.70;;;;;;;17.15;63.86;98306.27;106094;1276;22549;-81
2022/06/26 03:32:48;;;;;;;7.30;4.90;;;;;;;17.15;64.21;98303.52;106246;1276;22568;-81
2022/06/26 03:35:15;;;;;;;6.90;5.20;;;;;;;17.16;64.64;98304.28;105828;1281;138217;-81
2022/06/26 03:37:41;;;;;;;7.60;5.50;;;;;;;17.17;64.41;98304.27;106098;1279;22567;-81
2022/06/26 03:40:09;;;;;;;8.10;5.40;;;;;;;17.17;64.43;98309.16;106226;1280;137487;-81
2022/06/26 03:42:35;;;;;;;8.20;5.20;;;;;;;17.16;64.53;98304.38;105938;1278;23966;-81
2022/06/26 03:45:01;;;;;;;7.70;5.10;;;;;;;17.14;64.56;98310.02;106057;1277;22566;-81
2022/06/26 03:47:27;;;;;;;6.30;5.30;;;;;;;17.14;64.75;98310.19;105882;1278;139312;-81
2022/06/26 03:49:54;;;;;;;8.00;5.30;;;;;;;17.14;65.00;98307.93;106134;1279;22548;-81
2022/06/26 03:52:24;;;;;;;9.20;5.50;;;;;;;17.15;64.86;98309.40;105937;1277;137977;-80
2022/06/26 03:54:52;;;;;;;8.40;5.20;;;;;;;17.15;65.03;98310.99;105783;1277;22558;-82
2022/06/26 03:57:21;;;;;;;6.00;4.80;;;;;;;17.16;65.31;98308.89;105788;1277;137607;-81
2022/06/26 03:59:48;;;;;;;6.00;4.80;;;;;;;17.21;65.40;98305.64;106173;1277;22569;-82
2022/06/26 04:02:21;;;;;;;7.80;5.00;;;;;;;17.26;65.66;98306.63;106525;1277;22766;-81
2022/06/26 04:04:49;;;;;;;7.80;4.80;;;;;;;17.32;65.52;98309.98;106453;1277;137244;-82
2022/06/26 04:07:15;;;;;;;7.50;5.60;;;;;;;17.37;65.72;98311.19;106175;1277;24386;-81
2022/06/26 04:09:44;;;;;;;6.40;4.90;;;;;;;17.43;66.09;98315.14;106109;1278;138330;-81
2022/06/26 04:12:14;;;;;;;11.50;5.40;;;;;;;17.46;66.55;98315.60;106025;1278;25619;-82
2022/06/26 04:14:42;;;;;;;7.50;5.40;;;;;;;17.44;66.84;98315.17;106371;1276;22570;-82
2022/06/26 04:17:11;;;;;;;6.60;5.60;;;;;;;17.45;66.97;98315.28;106188;1277;137367;-81
2022/06/26 04:19:44;;;;;;;5.60;5.00;;;;;;;17.48;66.92;98321.41;106021;1278;22697;-82
2022/06/26 04:22:11;;;;;;;8.00;5.00;;;;;;;17.55;67.05;98321.83;106169;1277;138153;-81
2022/06/26 04:24:38;;;;;;;6.00;5.20;;;;;;;17.63;66.38;98322.00;106249;1278;22542;-81
2022/06/26 04:27:05;;;;;;;6.20;5.10;;;;;;;17.72;66.18;98322.66;106201;1277;25413;-81
2022/06/26 04:29:31;;;;;;;7.30;5.00;;;;;;;17.81;65.90;98324.20;106129;1277;137735;-81
2022/06/26 04:31:57;;;;;;;7.20;5.20;;;;;;;17.88;65.62;98326.60;105793;1277;24380;-81
2022/06/26 04:34:25;;;;;;;9.70;5.20;;;;;;;17.95;65.46;98325.91;105768;1278;137628;-80
2022/06/26 04:36:52;;;;;;;6.50;5.30;;;;;;;18.01;65.24;98319.77;106295;1277;25577;-80
2022/06/26 04:39:20;;;;;;;8.80;5.80;;;;;;;18.07;64.92;98323.85;106599;1277;138186;-80
2022/06/26 04:41:49;;;;;;;8.50;5.50;;;;;;;18.13;64.67;98322.02;106713;1278;24251;-81
2022/06/26 04:44:17;;;;;;;7.20;5.60;;;;;;;18.19;64.55;98327.50;106045;1278;25323;-80
2022/06/26 04:46:48;;;;;;;7.00;5.60;;;;;;;18.24;64.34;98331.61;106536;1281;138204;-81
2022/06/26 04:49:15;;;;;;;8.70;5.70;;;;;;;18.30;64.08;98331.91;106229;1281;22593;-80
2022/06/26 04:51:41;;;;;;;8.50;5.80;;;;;;;18.34;63.98;98330.70;106077;1281;137725;-80
2022/06/26 04:54:21;;;;;;;6.60;5.40;;;;;;;18.39;63.64;98330.50;106427;1277;32150;-81
2022/06/26 04:56:48;;;;;;;7.20;5.20;;;;;;;18.45;63.23;98327.11;106416;1278;24993;-80
2022/06/26 04:59:14;;;;;;;10.40;5.30;;;;;;;18.51;62.99;98327.01;106259;1278;137562;-80
2022/06/26 05:01:41;;;;;;;7.30;5.60;;;;;;;18.55;62.87;98328.31;106365;1281;23065;-80
2022/06/26 05:04:12;;;;;;;6.10;5.20;;;;;;;18.61;62.76;98323.64;106656;1277;138532;-80
2022/06/26 05:06:54;;;;;;;7.80;4.90;;;;;;;18.68;62.70;98323.14;106522;1277;26812;-81
2022/06/26 05:09:25;;;;;;;7.90;5.00;;;;;;;18.73;62.56;98321.73;106651;1278;137666;-81
2022/06/26 05:11:52;;;;;;;7.20;5.60;;;;;;;18.78;62.24;98323.08;106736;1277;22604;-81
2022/06/26 05:14:19;;;;;;;7.40;5.70;;;;;;;18.85;61.92;98325.77;106511;1277;22502;-81
2022/06/26 05:16:51;;;;;;;6.90;5.10;;;;;;;18.90;61.87;98328.59;106447;1277;137287;-80
2022/06/26 05:19:21;;;;;;;7.00;5.30;;;;;;;18.95;62.08;98330.98;106838;1277;23695;-81
2022/06/26 05:21:47;;;;;;;13.80;6.00;;;;;;;19.01;62.10;98339.38;106294;1277;137682;-81
2022/06/26 05:24:13;;;;;;;10.00;5.00;;;;;;;19.08;62.00;98336.71;106286;1280;24916;-81
2022/06/26 05:26:59;;;;;;;5.60;4.60;;;;;;;19.16;61.89;98338.05;106275;1278;22597;-80
2022/06/26 05:29:43;;;;;;;8.40;5.00;;;;;;;19.22;61.71;98338.71;106912;1277;26510;-80
2022/06/26 05:32:10;;;;;;;6.80;5.40;;;;;;;19.28;62.00;98339.92;106355;1276;22709;-80
2022/06/26 05:34:36;;;;;;;7.20;5.00;;;;;;;19.34;61.85;98337.11;106549;1278;139296;-80
2022/06/26 05:37:02;;;;;;;9.00;4.80;;;;;;;19.41;62.04;98340.96;106363;1277;23087;-80
2022/06/26 05:39:29;;;;;;;5.30;4.70;;;;;;;19.47;61.68;98339.45;106211;1280;139913;-80
2022/06/26 05:41:55;;;;;;;6.00;4.90;;;;;;;19.54;61.66;98339.60;106339;1278;22719;-79
2022/06/26 05:44:38;;;;;;;7.80;4.60;;;;;;;19.62;62.21;98345.56;106374;1277;25434;-79
2022/06/26 05:47:05;;;;;;;6.70;5.30;;;;;;;19.69;62.05;98350.85;106446;1278;137546;-80
2022/06/26 05:49:40;;;;;;;5.40;4.70;;;;;;;19.77;62.05;98345.23;106484;1278;24302;-80
2022/06/26 05:52:12;;;;;;;5.80;5.10;;;;;;;19.84;62.05;98356.41;106302;1278;137737;-80
2022/06/26 05:54:53;;;;;;;5.60;4.90;;;;;;;19.92;61.98;98357.23;106430;1277;22698;-80
2022/06/26 05:57:33;;;;;;;7.70;5.00;;;;;;;20.00;61.71;98359.06;106422;1277;137861;-80
2022/06/26 06:00:26;;;;;;;7.40;4.80;;;;;;;20.10;61.07;98366.20;106592;1277;22598;-80
2022/06/26 06:02:53;;;;;;;8.50;5.10;;;;;;;20.17;60.81;98364.38;106416;1277;22561;-80
2022/06/26 06:05:21;;;;;;;6.10;4.90;;;;;;;20.26;60.74;98372.83;106289;1278;137935;-80
2022/06/26 06:07:48;;;;;;;9.00;5.00;;;;;;;20.35;60.62;98375.84;106096;1278;22566;-80
2022/06/26 06:10:18;;;;;;;7.10;4.60;;;;;;;20.42;60.35;98376.48;107112;1276;137423;-79
2022/06/26 06:12:44;;;;;;;;;;;;;;;20.51;59.97;98378.77;106329;1278;22691;-79
2022/06/26 06:15:11;;;;;;;8.20;4.90;;;;;;;20.58;59.82;98379.39;106436;1277;24252;-80
2022/06/26 06:17:40;;;;;;;9.80;4.80;;;;;;;20.66;59.52;98377.89;105934;1278;137589;-80
2022/06/26 06:20:14;;;;;;;7.50;5.60;;;;;;;20.74;59.46;98381.08;106426;1277;25281;-79
2022/06/26 06:23:03;;;;;;;5.40;4.70;;;;;;;20.83;59.25;98385.44;106180;1277;137268;-80
2022/06/26 06:25:30;;;;;;;7.00;4.90;;;;;;;20.92;58.97;98386.67;106527;1277;25385;-80
2022/06/26 06:28:00;;;;;;;9.90;4.70;;;;;;;21.00;59.41;98389.73;106160;1281;137653;-80
2022/06/26 06:30:29;;;;;;;7.40;5.00;;;;;;;21.10;59.54;98391.98;106495;1277;24768;-80
2022/06/26 06:32:57;;;;;;;7.10;4.50;;;;;;;21.19;58.83;98389.59;106523;1277;22702;-80
2022/06/26 06:35:30;;;;;;;6.40;4.80;;;;;;;21.28;58.41;98391.02;106399;1277;137294;-80
2022/06/26 06:37:56;;;;;;;7.00;5.00;;;;;;;21.35;58.08;98388.50;106294;1278;22563;-80
2022/06/26 06:40:23;;;;;;;6.60;5.00;;;;;;;21.44;57.90;98396.41;106875;1277;137426;-81
2022/06/26 06:42:51;;;;;;;5.40;4.60;;;;;;;21.53;57.84;98390.39;106392;1277;22687;-80
2022/06/26 06:45:17;;;;;;;7.40;4.30;;;;;;;21.63;57.64;98391.80;106546;1277;23215;-80
2022/06/26 06:47:57;;;;;;;7.20;4.40;;;;;;;21.73;57.70;98391.14;106484;1277;30550;-80
2022/06/26 06:50:38;;;;;;;9.60;5.80;;;;;;;21.85;57.19;98387.23;106539;1277;22590;-80
2022/06/26 06:53:05;;;;;;;5.80;4.70;;;;;;;21.93;56.70;98388.15;106267;1277;137820;-80
2022/06/26 06:55:32;;;;;;;7.00;4.70;;;;;;;22.03;56.48;98389.15;106302;1277;22630;-80
2022/06/26 06:57:59;;;;;;;12.50;4.70;;;;;;;22.11;56.51;98392.27;106349;1277;138231;-80
2022/06/26 07:00:26;;;;;;;6.10;4.50;;;;;;;22.22;56.78;98392.61;106519;1277;24343;-80
2022/06/26 07:02:52;;;;;;;6.90;4.40;;;;;;;22.32;56.57;98397.56;106433;1277;22669;-80
2022/06/26 07:05:20;;;;;;;6.30;4.60;;;;;;;22.43;55.70;98393.69;106211;1277;137995;-80
2022/06/26 07:07:49;;;;;;;;;;;;;;;22.54;55.16;98395.10;106491;1277;24256;-80
2022/06/26 07:10:15;;;;;;;7.50;4.90;;;;;;;22.64;54.88;98397.75;106447;1277;123877;-80
2022/06/26 07:12:57;;;;;;;6.00;4.30;;;;;;;22.76;54.75;98400.76;106569;1277;24090;-80
2022/06/26 07:15:25;;;;;;;8.30;4.90;;;;;;;22.90;54.44;98399.73;106323;1276;137618;-80
2022/06/26 07:17:51;;;;;;;4.60;4.00;;;;;;;23.01;54.60;98399.42;106357;1277;22568;-80
2022/06/26 07:20:17;;;;;;;7.00;4.30;;;;;;;23.12;54.19;98400.42;106236;1280;25473;-80
2022/06/26 07:22:44;;;;;;;7.90;4.30;;;;;;;23.23;54.06;98397.49;106571;1277;137685;-80
2022/06/26 07:25:22;;;;;;;5.30;4.10;;;;;;;23.37;53.77;98397.20;106429;1277;25388;-80
2022/06/26 07:28:00;;;;;;;7.60;4.40;;;;;;;23.52;53.43;98390.05;107032;1277;137477;-81
2022/06/26 07:30:31;;;;;;;4.30;3.90;;;;;;;23.65;52.54;98388.80;106869;1277;22699;-80
2022/06/26 07:35:49;;;;;;;4.90;4.10;;;;;;;23.94;52.06;98392.13;106741;1277;22612;-81
2022/06/26 07:38:15;;;;;;;6.60;4.70;;;;;;;24.08;51.66;98392.83;106524;1277;22583;-80
2022/06/26 07:40:41;;;;;;;5.80;3.80;;;;;;;24.21;51.33;98389.88;106271;1278;137515;-80
2022/06/26 07:43:08;;;;;;;5.30;4.00;;;;;;;24.35;51.17;98393.34;106260;1278;25379;-80
2022/06/26 07:45:35;;;;;;;7.10;4.20;;;;;;;24.49;50.90;98392.23;106331;1276;137799;-80
2022/06/26 07:48:06;;;;;;;;;;;;;;;24.64;49.68;98391.69;106115;1278;23660;-79
2022/06/26 07:50:35;;;;;;;6.90;3.60;;;;;;;24.77;49.66;98390.59;106275;1277;23113;-80
2022/06/26 07:53:02;;;;;;;7.80;3.90;;;;;;;24.93;49.47;98388.61;106114;1277;137447;-79
2022/06/26 07:55:29;;;;;;;7.30;4.20;;;;;;;25.07;49.00;98385.95;106490;1277;24223;-79
2022/06/26 07:57:55;;;;;;;4.70;3.90;;;;;;;25.22;48.60;98387.06;106025;1278;137560;-79
2022/06/26 08:00:22;;;;;;;7.80;4.30;;;;;;;25.37;48.53;98386.23;106760;1277;22544;-81
2022/06/26 08:02:48;;;;;;;4.30;3.90;;;;;;;25.50;47.85;98388.60;106473;1276;22563;-80
2022/06/26 08:05:15;;;;;;;3.90;3.40;;;;;;;25.66;47.54;98383.23;106335;1276;138168;-80
2022/06/26 08:07:55;;;;;;;6.30;3.80;;;;;;;25.83;46.32;98386.98;106363;1276;22622;-80
2022/06/26 08:10:22;;;;;;;3.80;3.50;;;;;;;25.95;45.86;98383.57;106077;1277;137402;-82
2022/06/26 08:12:48;;;;;;;5.10;3.50;;;;;;;26.07;45.38;98387.23;106316;1277;22596;-81
2022/06/26 08:15:15;;;;;;;4.30;3.40;;;;;;;26.17;44.81;98388.27;106195;1277;23909;-80
2022/06/26 08:17:41;;;;;;;7.20;3.80;;;;;;;26.27;45.28;98390.52;106366;1277;137387;-81
2022/06/26 08:20:08;;;;;;;3.80;3.50;;;;;;;26.40;44.71;98388.73;105923;1278;24031;-80
2022/06/26 08:22:35;;;;;;;9.60;3.80;;;;;;;26.55;44.36;98390.06;106671;1277;137574;-80
2022/06/26 08:25:01;;;;;;;9.90;3.40;;;;;;;26.68;43.95;98390.87;106023;1278;22563;-81
2022/06/26 08:27:27;;;;;;;5.10;3.30;;;;;;;26.83;43.30;98393.14;106530;1276;137533;-80
2022/06/26 08:29:54;;;;;;;5.90;3.40;;;;;;;27.00;43.28;98394.29;106094;1278;22550;-80
2022/06/26 08:32:20;;;;;;;4.60;3.20;;;;;;;27.19;42.58;98396.10;106467;1277;23419;-81
2022/06/26 08:34:46;;;;;;;4.80;2.80;;;;;;;27.31;40.97;98396.10;106911;1278;137460;-80
2022/06/26 08:37:13;;;;;;;4.40;3.00;;;;;;;27.45;41.22;98400.30;106611;1277;23435;-80
2022/06/26 08:39:39;;;;;;;5.10;3.20;;;;;;;27.60;41.32;98400.33;106973;1277;137459;-80
2022/06/26 08:42:06;;;;;;;5.30;3.30;;;;;;;27.74;40.51;98399.69;107210;1279;23361;-80
2022/06/26 08:44:42;;;;;;;5.90;3.00;;;;;;;27.84;40.31;98396.29;106811;1276;24325;-81
2022/06/26 08:47:21;;;;;;;4.10;3.10;;;;;;;28.01;40.52;98393.77;107131;1277;137997;-80
2022/06/26 08:49:50;;;;;;;3.50;3.20;;;;;;;28.16;38.80;98390.62;107116;1276;24750;-80
2022/06/26 08:52:21;;;;;;;4.00;3.10;;;;;;;28.30;38.28;98392.11;106884;1277;137477;-81
2022/06/26 08:54:48;;;;;;;;;;;;;;;28.43;37.35;98388.48;106947;1277;22543;-80
2022/06/26 08:57:15;;;;;;;6.50;2.80;;;;;;;28.55;37.25;98385.58;106551;1277;22593;-79
2022/06/26 08:59:42;;;;;;;4.90;2.90;;;;;;;28.68;36.63;98384.44;106345;1277;137445;-80
2022/06/26 09:02:09;;;;;;;4.00;2.80;;;;;;;28.82;36.70;98387.20;106933;1276;22659;-80
2022/06/26 09:04:37;;;;;;;5.00;2.60;;;;;;;28.94;36.06;98379.69;106444;1276;137582;-80
2022/06/26 09:07:06;;;;;;;3.60;2.80;;;;;;;29.06;36.16;98380.33;107323;1277;22605;-80
2022/06/26 09:09:35;;;;;;;4.60;2.80;;;;;;;29.18;36.10;98381.92;107085;1276;567417;-81
2022/06/26 09:12:02;;;;;;;4.40;2.70;;;;;;;29.31;34.58;98381.63;107079;1276;22591;-80
2022/06/26 09:14:29;;;;;;;4.90;2.70;;;;;;;29.40;33.68;98380.42;107238;1277;22617;-80
2022/06/26 09:16:57;;;;;;;3.30;3.00;;;;;;;29.48;33.66;98381.12;106633;1277;137664;-80
2022/06/26 09:19:41;;;;;;;3.20;2.60;;;;;;;29.59;34.13;98382.20;106503;1277;22564;-80
2022/06/26 09:22:13;;;;;;;3.90;2.20;;;;;;;29.72;34.04;98382.67;106508;1276;137464;-79
2022/06/26 09:24:50;;;;;;;2.40;2.10;;;;;;;29.82;32.88;98383.98;106787;1276;22579;-81
2022/06/26 09:27:17;;;;;;;3.00;2.60;;;;;;;29.91;33.23;98383.59;106777;1277;24262;-80
2022/06/26 09:29:55;;;;;;;3.40;2.70;;;;;;;30.04;33.49;98380.80;107269;1276;137298;-80
2022/06/26 09:32:22;;;;;;;;;;;;;;;30.20;33.15;98382.83;106870;1276;23740;-79
2022/06/26 09:34:51;;;;;;;3.60;2.20;;;;;;;30.32;32.71;98382.70;106771;1277;124090;-79
2022/06/26 09:37:20;;;;;;;4.60;2.70;;;;;;;30.48;32.60;98385.34;106707;1277;24371;-80
2022/06/26 09:39:47;;;;;;;3.80;2.30;;;;;;;30.59;32.02;98383.23;106965;1278;138942;-80
2022/06/26 09:42:19;;;;;;;3.20;2.50;;;;;;;30.73;31.80;98385.20;107253;1276;22578;-78
2022/06/26 09:44:47;;;;;;;3.40;2.40;;;;;;;30.90;31.25;98382.45;106657;1276;22575;-81
2022/06/26 09:47:21;;;;;;;;;;;;;;;31.02;30.65;98383.66;107157;1276;137601;-84
2022/06/26 09:49:54;;;;;;;3.60;2.60;;;;;;;31.11;31.06;98385.37;107027;1277;22699;-80
2022/06/26 09:52:22;;;;;;;3.00;2.30;;;;;;;31.19;31.05;98387.95;106951;1277;137564;-76
2022/06/26 09:55:05;;;;;;;2.30;2.20;;;;;;;31.25;31.06;98390.02;106771;1277;24304;-79
2022/06/26 09:57:32;;;;;;;2.70;2.30;;;;;;;31.38;30.85;98389.99;106481;1277;137604;-77
2022/06/26 10:00:10;;;;;;;5.30;2.70;;;;;;;31.52;30.75;98386.15;106577;1277;22664;-87
2022/06/26 10:08:43;;;;;;;3.80;2.60;;;;;;;31.79;29.49;98391.30;106125;1279;22572;-79
2022/06/26 10:11:10;;;;;;;3.50;2.40;;;;;;;31.95;30.02;98390.79;106161;1279;137536;-79
2022/06/26 10:13:40;;;;;;;6.70;2.70;;;;;;;32.12;29.57;98391.43;105995;1280;23920;-79
2022/06/26 10:16:44;;;;;;;5.30;2.70;;;;;;;32.25;29.73;98389.91;105870;1280;137569;-78
2022/06/26 10:19:19;;;;;;;2.90;2.50;;;;;;;32.35;29.16;98391.02;106139;1280;25483;-78
2022/06/26 10:21:47;;;;;;;6.00;3.10;;;;;;;32.36;28.86;98391.02;106035;1280;137662;-79
2022/06/26 10:24:15;;;;;;;3.40;2.50;;;;;;;32.41;29.05;98393.08;106023;1280;22573;-79
2022/06/26 10:26:52;;;;;;;3.20;2.80;;;;;;;32.54;28.84;98394.20;106036;1277;22564;-79
2022/06/26 10:29:18;;;;;;;2.90;2.60;;;;;;;32.62;28.34;98386.05;106072;1277;137523;-79
2022/06/26 10:31:49;;;;;;;3.00;2.70;;;;;;;32.67;28.80;98387.20;106416;1276;24377;-79
2022/06/26 10:34:22;;;;;;;5.60;3.00;;;;;;;32.69;28.94;98383.59;106005;1276;137381;-79
2022/06/26 10:37:02;;;;;;;3.70;2.60;;;;;;;32.72;29.07;98390.85;106484;1276;22646;-79
2022/06/26 10:39:56;;;;;;;3.80;2.80;;;;;;;32.81;28.44;98384.05;106171;1276;137502;-79
2022/06/26 10:45:12;;;;;;;4.20;2.80;;;;;;;32.79;26.79;98381.94;106476;1277;23049;-77
2022/06/26 10:47:52;;;;;;;3.50;2.50;;;;;;;32.89;27.34;98382.71;105746;1276;137511;-82
2022/06/26 10:50:40;;;;;;;4.20;2.60;;;;;;;33.03;27.70;98382.84;106226;1276;23159;-80
2022/06/26 10:53:22;;;;;;;6.80;2.40;;;;;;;33.10;26.62;98375.77;106432;1277;137442;-80
2022/06/26 10:56:04;;;;;;;2.80;2.10;;;;;;;33.06;26.63;98379.06;106236;1277;25418;-83
2022/06/26 10:58:35;;;;;;;3.40;2.60;;;;;;;33.05;26.52;98373.50;106372;1277;137493;-79
2022/06/26 11:01:08;;;;;;;2.60;2.40;;;;;;;33.13;26.55;98370.56;106277;1276;25439;-73
2022/06/26 11:03:49;;;;;;;3.60;2.80;;;;;;;33.24;27.28;98373.83;106022;1277;137561;-76
2022/06/26 11:06:16;;;;;;;5.80;2.40;;;;;;;33.37;27.25;98377.56;105818;1276;25309;-73
2022/06/26 11:08:57;;;;;;;4.60;2.60;;;;;;;33.43;26.20;98369.75;105897;1276;25275;-79
2022/06/26 11:11:32;;;;;;;4.60;2.30;;;;;;;33.47;25.97;98371.70;106809;1276;137409;-76
2022/06/26 11:14:07;;;;;;;3.50;2.40;;;;;;;33.47;26.20;98370.33;106886;1276;22572;-77
2022/06/26 11:16:43;;;;;;;5.10;2.70;;;;;;;33.50;26.30;98366.29;105803;1276;137589;-77
2022/06/26 11:19:25;;;;;;;3.70;2.40;;;;;;;33.53;25.85;98368.30;106200;1277;26471;-77
2022/06/26 11:22:09;;;;;;;5.30;2.60;;;;;;;33.55;25.58;98363.80;105896;1277;137567;-78
2022/06/26 11:24:50;;;;;;;3.90;2.50;;;;;;;33.57;25.92;98362.50;106530;1277;22546;-78
2022/06/26 11:27:21;;;;;;;3.90;2.60;;;;;;;33.65;26.37;98364.45;106480;1276;22570;-78
2022/06/26 11:29:47;;;;;;;5.00;2.60;;;;;;;33.79;26.16;98361.25;106871;1277;24222;-78
2022/06/26 11:32:14;;;;;;;2.40;2.20;;;;;;;33.97;26.20;98361.24;106363;1277;24782;-78
2022/06/26 11:34:53;;;;;;;2.90;2.40;;;;;;;34.06;24.94;98357.11;105969;1277;137931;-79
2022/06/26 11:37:36;;;;;;;2.50;2.30;;;;;;;34.00;25.26;98354.79;106111;1277;22589;-79
2022/06/26 11:40:13;;;;;;;5.20;2.20;;;;;;;34.03;25.08;98354.69;106202;1277;137610;-78
2022/06/26 11:42:40;;;;;;;4.60;2.50;;;;;;;34.14;25.34;98355.42;106686;1277;24309;-79
2022/06/26 11:45:07;;;;;;;3.40;2.50;;;;;;;34.18;24.87;98356.64;106402;1276;24325;-79
2022/06/26 11:47:36;;;;;;;4.80;2.40;;;;;;;34.12;24.35;98351.54;106242;1277;137430;-79
2022/06/26 11:50:03;;;;;;;4.00;2.50;;;;;;;34.06;24.80;98350.49;106407;1277;22608;-79
2022/06/26 11:52:30;;;;;;;2.80;2.50;;;;;;;34.04;25.86;98354.93;106444;1277;137598;-79